createdAt,value
2023-05-09T00:01:25.292Z,100.00
2023-05-09T00:03:52.199Z,100.00
2023-05-09T00:06:19.769Z,100.00
2023-05-09T00:08:46.560Z,100.00
2023-05-09T00:11:13.092Z,100.00
2023-05-09T00:13:39.747Z,100.00
2023-05-09T00:16:06.722Z,100.00
2023-05-09T00:18:34.164Z,100.00
2023-05-09T00:21:03.109Z,100.00
2023-05-09T00:23:30.724Z,100.00
2023-05-09T00:25:57.391Z,100.00
2023-05-09T00:28:23.895Z,100.00
2023-05-09T00:30:51.065Z,100.00
2023-05-09T00:33:17.744Z,100.00
2023-05-09T00:35:44.350Z,100.00
2023-05-09T00:38:11.046Z,100.00
2023-05-09T00:40:37.829Z,100.00
2023-05-09T00:43:04.956Z,100.00
2023-05-09T00:45:31.773Z,100.00
2023-05-09T00:47:58.476Z,100.00
2023-05-09T00:50:25.150Z,100.00
2023-05-09T00:52:51.914Z,100.00
2023-05-09T00:55:19.668Z,100.00
2023-05-09T00:57:46.317Z,100.00
2023-05-09T01:00:13.694Z,100.00
2023-05-09T01:02:45.700Z,100.00
2023-05-09T01:05:12.868Z,100.00
2023-05-09T01:07:44.886Z,100.00
2023-05-09T01:10:30.094Z,100.00
2023-05-09T01:13:09.919Z,100.00
2023-05-09T01:16:06.489Z,100.00
2023-05-09T01:18:38.736Z,100.00
2023-05-09T01:21:11.262Z,100.00
2023-05-09T01:23:44.271Z,100.00
2023-05-09T01:26:52.187Z,100.00
2023-05-09T01:29:36.657Z,100.00
2023-05-09T01:32:07.731Z,100.00
2023-05-09T01:34:35.667Z,100.00
2023-05-09T01:37:04.826Z,100.00
2023-05-09T01:39:33.893Z,100.00
2023-05-09T01:42:03.486Z,100.00
2023-05-09T01:44:35.948Z,100.00
2023-05-09T01:47:03.924Z,100.00
2023-05-09T01:49:32.836Z,100.00
2023-05-09T01:52:03.884Z,100.00
2023-05-09T01:54:31.642Z,100.00
2023-05-09T01:56:59.815Z,100.00
2023-05-09T01:59:28.588Z,100.00
2023-05-09T02:01:56.562Z,100.00
2023-05-09T02:04:24.027Z,100.00
2023-05-09T02:06:51.927Z,100.00
2023-05-09T02:09:20.129Z,100.00
2023-05-09T02:11:47.150Z,100.00
2023-05-09T02:14:14.445Z,100.00
2023-05-09T02:16:41.158Z,100.00
2023-05-09T02:19:07.927Z,100.00
2023-05-09T02:21:34.642Z,100.00
2023-05-09T02:24:01.513Z,100.00
2023-05-09T02:26:28.981Z,100.00
2023-05-09T02:28:56.617Z,100.00
2023-05-09T02:31:27.955Z,100.00
2023-05-09T02:33:55.325Z,100.00
2023-05-09T02:36:22.607Z,100.00
2023-05-09T02:38:49.459Z,100.00
2023-05-09T02:41:17.313Z,100.00
2023-05-09T02:43:43.905Z,100.00
2023-05-09T02:46:10.983Z,100.00
2023-05-09T02:48:37.767Z,100.00
2023-05-09T02:51:04.561Z,100.00
2023-05-09T02:53:31.290Z,100.00
2023-05-09T02:55:58.669Z,100.00
2023-05-09T02:58:25.368Z,100.00
2023-05-09T03:00:51.948Z,100.00
2023-05-09T03:03:19.270Z,100.00
2023-05-09T03:05:46.421Z,100.00
2023-05-09T03:08:12.973Z,100.00
2023-05-09T03:10:39.607Z,100.00
2023-05-09T03:13:06.207Z,100.00
2023-05-09T03:15:32.804Z,100.00
2023-05-09T03:17:59.431Z,100.00
2023-05-09T03:20:26.878Z,100.00
2023-05-09T03:22:53.474Z,100.00
2023-05-09T03:25:20.115Z,100.00
2023-05-09T03:27:46.705Z,100.00
2023-05-09T03:30:13.885Z,100.00
2023-05-09T03:32:40.380Z,100.00
2023-05-09T03:35:07.345Z,100.00
2023-05-09T03:37:33.892Z,100.00
2023-05-09T03:40:00.402Z,100.00
2023-05-09T03:42:26.872Z,100.00
2023-05-09T03:44:53.411Z,100.00
2023-05-09T03:47:19.970Z,100.00
2023-05-09T03:49:46.825Z,100.00
2023-05-09T03:52:13.600Z,100.00
2023-05-09T03:54:40.248Z,100.00
2023-05-09T03:57:07.193Z,100.00
2023-05-09T03:59:33.768Z,100.00
2023-05-09T04:02:00.501Z,100.00
2023-05-09T04:04:27.574Z,100.00
2023-05-09T04:06:54.236Z,100.00
2023-05-09T04:09:20.826Z,100.00
2023-05-09T04:11:47.369Z,100.00
2023-05-09T04:14:13.996Z,100.00
2023-05-09T04:16:40.559Z,100.00
2023-05-09T04:19:07.301Z,100.00
2023-05-09T04:21:33.956Z,100.00
2023-05-09T04:24:00.705Z,100.00
2023-05-09T04:26:27.408Z,100.00
2023-05-09T04:28:53.972Z,100.00
2023-05-09T04:31:21.203Z,100.00
2023-05-09T04:33:47.790Z,100.00
2023-05-09T04:36:14.408Z,100.00
2023-05-09T04:38:41.040Z,100.00
2023-05-09T04:41:07.618Z,100.00
2023-05-09T04:43:34.285Z,100.00
2023-05-09T04:46:01.334Z,100.00
2023-05-09T04:48:27.947Z,100.00
2023-05-09T04:50:54.546Z,100.00
2023-05-09T04:53:21.118Z,100.00
2023-05-09T04:55:47.671Z,100.00
2023-05-09T04:58:14.212Z,100.00
2023-05-09T05:00:41.103Z,100.00
2023-05-09T05:03:07.713Z,100.00
2023-05-09T05:05:37.445Z,100.00
2023-05-09T05:08:04.829Z,100.00
2023-05-09T05:10:31.429Z,100.00
2023-05-09T05:12:58.113Z,100.00
2023-05-09T05:15:24.796Z,99.76
2023-05-09T05:17:51.491Z,100.00
2023-05-09T05:20:18.200Z,99.93
2023-05-09T05:22:44.692Z,99.93
2023-05-09T05:25:11.877Z,99.77
2023-05-09T05:27:38.559Z,100.00
2023-05-09T05:30:05.757Z,100.00
2023-05-09T05:32:32.416Z,100.00
2023-05-09T05:34:59.064Z,100.00
2023-05-09T05:37:26.101Z,99.91
2023-05-09T05:39:52.782Z,99.40
2023-05-09T05:42:19.307Z,98.24
2023-05-09T05:44:45.892Z,97.76
2023-05-09T05:47:12.395Z,96.84
2023-05-09T05:49:39.387Z,96.93
2023-05-09T05:52:06.007Z,95.14
2023-05-09T05:54:32.585Z,96.62
2023-05-09T05:56:59.126Z,94.16
2023-05-09T05:59:25.669Z,93.80
2023-05-09T06:01:52.290Z,92.53
2023-05-09T06:04:18.936Z,91.17
2023-05-09T06:06:49.552Z,89.68
2023-05-09T06:09:17.563Z,88.19
2023-05-09T06:11:44.080Z,85.65
2023-05-09T06:14:10.605Z,85.73
2023-05-09T06:16:37.237Z,83.13
2023-05-09T06:19:04.792Z,84.68
2023-05-09T06:21:34.195Z,82.28
2023-05-09T06:24:08.473Z,87.03
2023-05-09T06:26:38.736Z,87.81
2023-05-09T06:29:08.245Z,85.64
2023-05-09T06:31:40.199Z,86.82
2023-05-09T06:34:07.112Z,87.18
2023-05-09T06:36:34.937Z,87.48
2023-05-09T06:39:01.993Z,87.17
2023-05-09T06:41:28.538Z,87.40
2023-05-09T06:43:56.538Z,83.84
2023-05-09T06:46:23.251Z,81.31
2023-05-09T06:48:49.884Z,83.28
2023-05-09T06:51:16.524Z,84.45
2023-05-09T06:53:43.102Z,87.77
2023-05-09T06:56:09.742Z,88.38
2023-05-09T06:58:36.996Z,82.82
2023-05-09T07:01:04.607Z,82.82
2023-05-09T07:03:31.185Z,82.88
2023-05-09T07:05:59.026Z,79.72
2023-05-09T07:08:26.680Z,75.05
2023-05-09T07:10:53.661Z,71.13
2023-05-09T07:13:21.300Z,72.58
2023-05-09T07:15:48.012Z,73.79
2023-05-09T07:18:14.666Z,73.13
2023-05-09T07:20:41.325Z,71.47
2023-05-09T07:23:07.872Z,73.14
2023-05-09T07:25:34.978Z,76.21
2023-05-09T07:28:01.497Z,79.76
2023-05-09T07:30:28.035Z,79.45
2023-05-09T07:32:54.621Z,79.30
2023-05-09T07:35:21.326Z,82.76
2023-05-09T07:37:47.985Z,77.86
2023-05-09T07:40:15.207Z,77.52
2023-05-09T07:42:46.283Z,75.81
2023-05-09T07:45:13.115Z,69.36
2023-05-09T07:47:39.875Z,67.91
2023-05-09T07:50:07.010Z,69.19
2023-05-09T07:52:34.081Z,69.68
2023-05-09T07:55:01.721Z,72.91
2023-05-09T07:57:28.205Z,78.04
2023-05-09T07:59:54.822Z,78.74
2023-05-09T08:02:21.383Z,79.01
2023-05-09T08:04:49.081Z,78.36
2023-05-09T08:07:16.136Z,77.66
2023-05-09T08:09:42.758Z,76.84
2023-05-09T08:12:09.390Z,78.80
2023-05-09T08:14:36.055Z,78.76
2023-05-09T08:17:02.611Z,78.68
2023-05-09T08:19:29.214Z,78.99
2023-05-09T08:21:56.064Z,79.77
2023-05-09T08:24:22.623Z,78.39
2023-05-09T08:26:49.185Z,80.59
2023-05-09T08:29:16.519Z,82.41
2023-05-09T08:31:43.432Z,82.69
2023-05-09T08:34:10.100Z,82.06
2023-05-09T08:36:37.042Z,80.49
2023-05-09T08:39:04.434Z,80.00
2023-05-09T08:41:35.989Z,81.56
2023-05-09T08:44:03.420Z,80.30
2023-05-09T08:46:36.939Z,74.57
2023-05-09T08:49:07.286Z,77.79
2023-05-09T08:51:35.717Z,75.56
2023-05-09T08:54:02.907Z,74.72
2023-05-09T08:56:31.466Z,74.35
2023-05-09T08:58:59.130Z,74.19
2023-05-09T09:01:29.308Z,74.98
2023-05-09T09:03:56.615Z,74.83
2023-05-09T09:06:25.988Z,77.97
2023-05-09T09:08:56.299Z,76.13
2023-05-09T09:11:23.146Z,73.92
2023-05-09T09:13:53.017Z,73.60
2023-05-09T09:16:21.487Z,71.10
2023-05-09T09:18:48.450Z,72.74
2023-05-09T09:21:19.327Z,70.20
2023-05-09T09:23:47.913Z,67.86
2023-05-09T09:26:16.550Z,67.03
2023-05-09T09:28:43.274Z,68.62
2023-05-09T09:31:24.401Z,66.31
2023-05-09T09:33:51.710Z,68.82
2023-05-09T09:36:36.872Z,69.93
2023-05-09T09:39:05.024Z,66.81
2023-05-09T09:41:33.441Z,62.86
2023-05-09T09:44:07.314Z,59.74
2023-05-09T09:47:01.096Z,58.46
2023-05-09T09:49:27.736Z,57.28
2023-05-09T09:51:59.083Z,60.64
2023-05-09T09:54:29.318Z,60.42
2023-05-09T09:56:56.689Z,60.25
2023-05-09T09:59:25.679Z,57.94
2023-05-09T10:02:07.016Z,58.50
2023-05-09T10:04:37.030Z,59.86
2023-05-09T10:07:06.331Z,63.48
2023-05-09T10:09:34.791Z,59.53
2023-05-09T10:12:06.494Z,61.03
2023-05-09T10:14:35.808Z,59.23
2023-05-09T10:17:05.243Z,57.90
2023-05-09T10:19:33.292Z,56.35
2023-05-09T10:22:05.622Z,58.38
2023-05-09T10:24:48.384Z,59.04
2023-05-09T10:27:18.022Z,54.39
2023-05-09T10:29:49.228Z,53.51
2023-05-09T10:32:21.186Z,59.04
2023-05-09T10:34:57.572Z,63.16
2023-05-09T10:37:25.226Z,60.51
2023-05-09T10:39:53.735Z,59.54
2023-05-09T10:42:20.576Z,58.15
2023-05-09T10:44:48.096Z,61.62
2023-05-09T10:47:15.532Z,58.69
2023-05-09T10:49:43.563Z,57.40
2023-05-09T10:52:10.175Z,58.53
2023-05-09T10:54:37.467Z,56.66
2023-05-09T10:57:05.745Z,56.98
2023-05-09T10:59:45.540Z,58.99
2023-05-09T11:02:19.887Z,57.59
2023-05-09T11:04:46.740Z,60.24
2023-05-09T11:07:30.189Z,59.89
2023-05-09T11:10:20.097Z,57.50
2023-05-09T11:13:00.189Z,57.52
2023-05-09T11:15:29.976Z,59.79
2023-05-09T11:18:12.306Z,57.27
2023-05-09T11:20:48.421Z,56.38
2023-05-09T11:23:25.661Z,56.54
2023-05-09T11:25:53.363Z,57.35
2023-05-09T11:28:30.988Z,55.45
2023-05-09T11:31:12.111Z,59.18
2023-05-09T11:33:39.728Z,57.06
2023-05-09T11:36:15.644Z,51.54
2023-05-09T11:38:42.977Z,52.03
2023-05-09T11:41:09.614Z,50.21
2023-05-09T11:43:42.556Z,49.09
2023-05-09T11:46:09.125Z,54.29
2023-05-09T11:48:39.956Z,58.18
2023-05-09T11:51:07.576Z,55.41
2023-05-09T11:53:34.392Z,49.91
2023-05-09T11:56:06.357Z,49.96
2023-05-09T11:58:32.913Z,50.22
2023-05-09T12:01:00.971Z,52.35
2023-05-09T12:03:27.778Z,51.97
2023-05-09T12:05:56.111Z,51.96
2023-05-09T12:08:28.612Z,53.54
2023-05-09T12:10:55.318Z,51.59
2023-05-09T12:13:21.986Z,51.09
2023-05-09T12:15:48.709Z,52.79
2023-05-09T12:18:17.056Z,53.01
2023-05-09T12:20:50.501Z,50.93
2023-05-09T12:23:19.105Z,51.11
2023-05-09T12:26:04.027Z,56.28
2023-05-09T12:30:59.584Z,56.85
2023-05-09T12:33:26.758Z,54.72
2023-05-09T12:36:10.277Z,51.55
2023-05-09T12:38:37.758Z,49.71
2023-05-09T12:41:21.830Z,51.73
2023-05-09T12:43:56.501Z,52.06
2023-05-09T12:46:23.188Z,50.79
2023-05-09T12:48:50.377Z,53.20
2023-05-09T12:51:21.241Z,51.26
2023-05-09T12:53:48.653Z,52.64
2023-05-09T12:56:17.675Z,54.24
2023-05-09T12:58:51.801Z,53.89
2023-05-09T13:01:36.910Z,50.51
2023-05-09T13:04:05.757Z,52.87
2023-05-09T13:06:32.914Z,53.43
2023-05-09T13:09:01.554Z,52.80
2023-05-09T13:11:31.492Z,53.15
2023-05-09T13:13:58.794Z,57.94
2023-05-09T13:16:25.439Z,57.01
2023-05-09T13:18:52.284Z,55.93
2023-05-09T13:21:19.335Z,55.56
2023-05-09T13:23:46.136Z,55.29
2023-05-09T13:26:12.956Z,55.83
2023-05-09T13:28:39.559Z,57.94
2023-05-09T13:31:07.015Z,55.55
2023-05-09T13:33:33.843Z,57.69
2023-05-09T13:36:00.881Z,60.35
2023-05-09T13:38:31.826Z,57.16
2023-05-09T13:40:59.761Z,59.28
2023-05-09T13:43:27.482Z,58.21
2023-05-09T13:45:54.129Z,63.59
2023-05-09T13:48:20.927Z,63.98
2023-05-09T13:50:47.626Z,67.75
2023-05-09T13:53:14.364Z,63.88
2023-05-09T13:55:40.984Z,67.13
2023-05-09T13:58:07.773Z,66.34
2023-05-09T14:00:34.600Z,72.02
2023-05-09T14:03:03.033Z,72.76
2023-05-09T14:05:32.554Z,72.32
2023-05-09T14:07:59.259Z,74.47
2023-05-09T14:10:27.226Z,77.06
2023-05-09T14:12:54.228Z,74.56
2023-05-09T14:15:21.253Z,77.67
2023-05-09T14:17:48.284Z,76.27
2023-05-09T14:20:18.381Z,74.38
2023-05-09T14:22:45.116Z,71.44
2023-05-09T14:25:11.778Z,69.88
2023-05-09T14:27:38.590Z,69.17
2023-05-09T14:30:05.591Z,67.45
2023-05-09T14:32:32.878Z,68.92
2023-05-09T14:34:59.650Z,68.17
2023-05-09T14:37:26.186Z,68.50
2023-05-09T14:39:52.739Z,68.25
2023-05-09T14:42:19.866Z,70.20
2023-05-09T14:44:47.569Z,71.46
2023-05-09T14:47:18.119Z,73.64
2023-05-09T14:49:44.761Z,78.34
2023-05-09T14:52:11.497Z,78.24
2023-05-09T14:54:38.133Z,82.90
2023-05-09T14:57:05.496Z,78.88
2023-05-09T14:59:36.137Z,81.22
2023-05-09T15:02:03.856Z,82.13
2023-05-09T15:04:31.875Z,82.44
2023-05-09T15:06:59.103Z,82.05
2023-05-09T15:09:26.754Z,84.45
2023-05-09T15:11:54.054Z,84.48
2023-05-09T15:14:20.773Z,82.76
2023-05-09T15:16:47.408Z,81.40
2023-05-09T15:19:14.795Z,84.33
2023-05-09T15:21:41.590Z,83.85
2023-05-09T15:24:09.664Z,82.43
2023-05-09T15:26:36.997Z,78.92
2023-05-09T15:29:03.748Z,85.24
2023-05-09T15:31:33.265Z,84.29
2023-05-09T15:34:00.717Z,86.10
2023-05-09T15:36:30.262Z,86.24
2023-05-09T15:38:57.126Z,88.62
2023-05-09T15:41:23.912Z,86.52
2023-05-09T15:43:50.900Z,89.38
2023-05-09T15:46:17.999Z,84.65
2023-05-09T15:48:44.678Z,85.46
2023-05-09T15:51:11.953Z,87.80
2023-05-09T15:53:38.659Z,91.93
2023-05-09T15:56:05.612Z,91.56
2023-05-09T15:58:32.161Z,90.98
2023-05-09T16:00:58.724Z,90.93
2023-05-09T16:03:25.580Z,90.62
2023-05-09T16:05:53.018Z,91.03
2023-05-09T16:08:19.478Z,89.93
2023-05-09T16:10:49.021Z,91.28
2023-05-09T16:13:17.825Z,93.45
2023-05-09T16:15:45.480Z,87.32
2023-05-09T16:18:12.270Z,85.79
2023-05-09T16:20:38.884Z,89.82
2023-05-09T16:23:05.418Z,89.13
2023-05-09T16:25:33.454Z,85.32
2023-05-09T16:28:01.837Z,89.90
2023-05-09T16:30:28.478Z,92.34
2023-05-09T16:32:55.203Z,95.24
2023-05-09T16:35:21.964Z,92.97
2023-05-09T16:37:48.652Z,92.93
2023-05-09T16:40:15.413Z,93.69
2023-05-09T16:42:42.960Z,92.99
2023-05-09T16:45:10.033Z,93.14
2023-05-09T16:47:40.163Z,96.12
2023-05-09T16:50:07.507Z,94.89
2023-05-09T16:52:34.672Z,95.65
2023-05-09T16:55:01.524Z,94.68
2023-05-09T16:57:28.055Z,97.18
2023-05-09T16:59:54.698Z,98.13
2023-05-09T17:02:21.391Z,97.06
2023-05-09T17:04:48.157Z,96.26
2023-05-09T17:07:15.579Z,96.58
2023-05-09T17:09:43.277Z,98.29
2023-05-09T17:12:16.321Z,93.79
2023-05-09T17:14:43.089Z,96.36
2023-05-09T17:17:09.802Z,96.54
2023-05-09T17:19:36.855Z,100.00
2023-05-09T17:22:05.838Z,98.58
2023-05-09T17:24:32.542Z,96.47
2023-05-09T17:26:59.283Z,96.54
2023-05-09T17:29:30.683Z,98.58
2023-05-09T17:32:00.746Z,99.75
2023-05-09T17:34:28.560Z,98.30
2023-05-09T17:36:55.338Z,97.04
2023-05-09T17:39:23.248Z,96.40
2023-05-09T17:41:49.848Z,96.54
2023-05-09T17:44:16.712Z,96.80
2023-05-09T17:46:44.087Z,96.76
2023-05-09T17:49:14.008Z,98.32
2023-05-09T17:51:41.187Z,99.19
2023-05-09T17:54:10.829Z,98.57
2023-05-09T17:56:37.402Z,97.86
2023-05-09T17:59:03.908Z,98.99
2023-05-09T18:01:30.494Z,100.00
2023-05-09T18:03:57.282Z,99.73
2023-05-09T18:06:24.184Z,99.51
2023-05-09T18:08:51.184Z,99.73
2023-05-09T18:11:17.973Z,100.00
2023-05-09T18:13:44.624Z,100.00
2023-05-09T18:16:11.252Z,100.00
2023-05-09T18:18:37.996Z,100.00
2023-05-09T18:21:05.429Z,100.00
2023-05-09T18:23:32.044Z,100.00
2023-05-09T18:25:58.772Z,100.00
2023-05-09T18:28:25.877Z,100.00
2023-05-09T18:30:57.473Z,100.00
2023-05-09T18:33:25.305Z,100.00
2023-05-09T18:35:54.148Z,100.00
2023-05-09T18:38:21.310Z,100.00
2023-05-09T18:40:48.262Z,100.00
2023-05-09T18:43:16.519Z,100.00
2023-05-09T18:45:44.996Z,100.00
2023-05-09T18:48:11.556Z,100.00
2023-05-09T18:50:38.105Z,100.00
2023-05-09T18:53:04.714Z,100.00
2023-05-09T18:55:31.387Z,100.00
2023-05-09T18:57:58.008Z,100.00
2023-05-09T19:00:24.549Z,100.00
2023-05-09T19:02:51.683Z,100.00
2023-05-09T19:05:18.324Z,100.00
2023-05-09T19:07:44.995Z,100.00
2023-05-09T19:10:11.643Z,100.00
2023-05-09T19:12:38.338Z,100.00
2023-05-09T19:15:05.473Z,100.00
2023-05-09T19:17:32.133Z,100.00
2023-05-09T19:19:58.664Z,100.00
2023-05-09T19:22:25.311Z,100.00
2023-05-09T19:24:52.008Z,100.00
2023-05-09T19:27:19.084Z,100.00
2023-05-09T19:29:47.525Z,100.00
2023-05-09T19:32:17.855Z,100.00
2023-05-09T19:34:44.488Z,100.00
2023-05-09T19:37:10.971Z,100.00
2023-05-09T19:39:37.531Z,100.00
2023-05-09T19:42:04.066Z,100.00
2023-05-09T19:44:30.640Z,100.00
2023-05-09T19:46:58.503Z,100.00
2023-05-09T19:49:25.026Z,100.00
2023-05-09T19:51:51.563Z,100.00
2023-05-09T19:54:18.174Z,100.00
2023-05-09T19:56:45.821Z,100.00
2023-05-09T19:59:12.409Z,100.00
2023-05-09T20:01:39.027Z,100.00
2023-05-09T20:04:06.262Z,100.00
2023-05-09T20:06:32.847Z,100.00
2023-05-09T20:08:59.311Z,100.00
2023-05-09T20:11:25.799Z,100.00
2023-05-09T20:13:52.326Z,100.00
2023-05-09T20:16:21.087Z,100.00
2023-05-09T20:18:48.729Z,100.00
2023-05-09T20:21:16.504Z,100.00
2023-05-09T20:23:43.052Z,100.00
2023-05-09T20:26:09.974Z,100.00
2023-05-09T20:28:36.605Z,100.00
2023-05-09T20:31:03.357Z,100.00
2023-05-09T20:33:29.990Z,100.00
2023-05-09T20:35:56.496Z,100.00
2023-05-09T20:38:23.031Z,100.00
2023-05-09T20:40:49.499Z,100.00
2023-05-09T20:43:16.007Z,100.00
2023-05-09T20:45:43.002Z,100.00
2023-05-09T20:48:09.536Z,100.00
2023-05-09T20:50:36.242Z,100.00
2023-05-09T20:53:02.761Z,100.00
2023-05-09T20:55:29.271Z,100.00
2023-05-09T20:57:55.722Z,100.00
2023-05-09T21:00:22.218Z,100.00
2023-05-09T21:02:48.814Z,100.00
2023-05-09T21:05:15.477Z,100.00
2023-05-09T21:07:41.942Z,100.00
2023-05-09T21:10:10.227Z,100.00
2023-05-09T21:12:37.070Z,100.00
2023-05-09T21:15:03.820Z,100.00
2023-05-09T21:17:30.350Z,100.00
2023-05-09T21:19:56.828Z,100.00
2023-05-09T21:22:23.474Z,100.00
2023-05-09T21:24:50.847Z,100.00
2023-05-09T21:27:17.579Z,100.00
2023-05-09T21:29:44.044Z,100.00
2023-05-09T21:32:10.760Z,100.00
2023-05-09T21:34:37.247Z,100.00
2023-05-09T21:37:03.803Z,100.00
2023-05-09T21:39:32.432Z,100.00
2023-05-09T21:41:59.875Z,100.00
2023-05-09T21:44:26.404Z,100.00
2023-05-09T21:46:52.956Z,100.00
2023-05-09T21:49:21.568Z,100.00
2023-05-09T21:51:48.229Z,100.00
2023-05-09T21:54:14.728Z,100.00
2023-05-09T21:56:42.519Z,100.00
2023-05-09T21:59:09.490Z,100.00
2023-05-09T22:01:36.036Z,100.00
2023-05-09T22:04:02.603Z,100.00
2023-05-09T22:06:29.274Z,100.00
2023-05-09T22:08:55.766Z,100.00
2023-05-09T22:11:22.306Z,100.00
2023-05-09T22:13:48.841Z,100.00
2023-05-09T22:16:15.468Z,100.00
2023-05-09T22:18:42.211Z,100.00
2023-05-09T22:21:08.723Z,100.00
2023-05-09T22:23:35.689Z,100.00
2023-05-09T22:26:02.139Z,100.00
2023-05-09T22:28:28.602Z,100.00
2023-05-09T22:30:55.153Z,100.00
2023-05-09T22:33:21.866Z,100.00
2023-05-09T22:35:49.192Z,100.00
2023-05-09T22:38:15.834Z,100.00
2023-05-09T22:40:42.396Z,100.00
2023-05-09T22:43:10.503Z,100.00
2023-05-09T22:45:37.316Z,100.00
2023-05-09T22:48:04.022Z,100.00
2023-05-09T22:50:30.800Z,100.00
2023-05-09T22:52:57.326Z,100.00
2023-05-09T22:55:23.936Z,100.00
2023-05-09T22:57:50.641Z,100.00
2023-05-09T23:00:18.193Z,100.00
2023-05-09T23:02:45.059Z,100.00
2023-05-09T23:05:11.634Z,100.00
2023-05-09T23:07:38.237Z,100.00
2023-05-09T23:10:05.313Z,100.00
2023-05-09T23:12:32.094Z,100.00
2023-05-09T23:14:58.757Z,100.00
2023-05-09T23:17:25.496Z,100.00
2023-05-09T23:19:52.067Z,100.00
2023-05-09T23:22:18.732Z,100.00
2023-05-09T23:24:45.358Z,100.00
2023-05-09T23:27:12.127Z,100.00
2023-05-09T23:29:38.713Z,100.00
2023-05-09T23:32:05.360Z,100.00
2023-05-09T23:34:31.883Z,100.00
2023-05-09T23:36:58.433Z,100.00
2023-05-09T23:39:24.968Z,100.00
2023-05-09T23:41:51.494Z,100.00
2023-05-09T23:44:18.128Z,100.00
2023-05-09T23:46:44.742Z,100.00
2023-05-09T23:49:13.278Z,100.00
2023-05-09T23:51:40.066Z,100.00
2023-05-09T23:54:07.403Z,100.00
2023-05-09T23:56:34.034Z,100.00
2023-05-09T23:59:00.803Z,100.00
